createdAt,value
2023-02-06T00:04:48.414Z,1.52
2023-02-06T00:09:51.071Z,1.58
2023-02-06T00:14:53.662Z,1.63
2023-02-06T00:19:56.325Z,1.65
2023-02-06T00:24:59.301Z,1.63
2023-02-06T00:30:02.150Z,1.75
2023-02-06T00:35:05.142Z,2.20
2023-02-06T00:40:08.744Z,1.95
2023-02-06T00:45:11.815Z,1.63
2023-02-06T00:50:14.835Z,1.35
2023-02-06T00:55:19.009Z,1.95
2023-02-06T01:00:21.684Z,2.33
2023-02-06T01:05:25.435Z,2.08
2023-02-06T01:10:28.106Z,1.98
2023-02-06T01:15:30.747Z,2.28
2023-02-06T01:20:33.507Z,2.45
2023-02-06T01:25:37.883Z,1.40
2023-02-06T01:30:40.668Z,1.65
2023-02-06T01:35:43.249Z,2.80
2023-02-06T01:40:45.842Z,4.25
2023-02-06T01:45:48.589Z,2.53
2023-02-06T01:50:55.531Z,1.60
2023-02-06T01:56:01.784Z,1.55
2023-02-06T02:01:05.377Z,1.83
2023-02-06T02:06:18.205Z,1.97
2023-02-06T02:11:32.909Z,1.88
2023-02-06T02:17:01.544Z,1.60
2023-02-06T02:23:01.856Z,3.10
2023-02-06T02:28:30.540Z,1.73
2023-02-06T02:33:55.898Z,1.70
2023-02-06T02:39:26.582Z,1.70
2023-02-06T02:45:07.779Z,1.65
2023-02-06T02:50:11.503Z,1.45
2023-02-06T02:55:23.493Z,1.58
2023-02-06T03:00:34.915Z,1.67
2023-02-06T03:05:53.427Z,2.38
2023-02-06T03:11:22.352Z,1.20
2023-02-06T03:16:37.887Z,2.28
2023-02-06T03:21:42.754Z,1.52
2023-02-06T03:26:48.344Z,1.90
2023-02-06T03:31:57.466Z,2.25
2023-02-06T03:37:00.313Z,2.28
2023-02-06T03:42:04.949Z,2.08
2023-02-06T03:47:10.658Z,1.65
2023-02-06T03:52:22.195Z,1.88
2023-02-06T03:57:26.722Z,1.65
2023-02-06T04:02:30.126Z,2.53
2023-02-06T04:07:36.105Z,1.42
2023-02-06T04:12:39.256Z,2.08
2023-02-06T04:17:57.541Z,3.38
2023-02-06T04:23:02.433Z,1.48
2023-02-06T04:28:05.221Z,3.30
2023-02-06T04:33:07.935Z,2.08
2023-02-06T04:38:10.532Z,1.77
2023-02-06T04:43:13.120Z,2.25
2023-02-06T04:48:15.756Z,3.83
2023-02-06T04:53:18.536Z,2.25
2023-02-06T04:58:21.325Z,4.22
2023-02-06T05:03:25.331Z,3.83
2023-02-06T05:08:28.036Z,2.07
2023-02-06T05:13:30.851Z,2.17
2023-02-06T05:18:33.561Z,1.75
2023-02-06T05:23:36.323Z,3.08
2023-02-06T05:28:38.907Z,4.35
2023-02-06T05:33:41.506Z,2.85
2023-02-06T05:38:44.146Z,2.22
2023-02-06T05:43:47.058Z,2.13
2023-02-06T05:48:49.660Z,1.50
2023-02-06T05:53:52.185Z,2.28
2023-02-06T05:58:54.788Z,2.00
2023-02-06T06:03:57.673Z,1.52
2023-02-06T06:09:01.351Z,1.80
2023-02-06T06:14:04.196Z,1.30
2023-02-06T06:19:06.889Z,1.17
2023-02-06T06:24:09.694Z,1.98
2023-02-06T06:29:12.367Z,1.52
2023-02-06T06:34:14.990Z,2.55
2023-02-06T06:39:17.505Z,1.75
2023-02-06T06:44:20.187Z,2.35
2023-02-06T06:49:22.915Z,2.90
2023-02-06T06:54:25.462Z,2.20
2023-02-06T06:59:28.182Z,2.17
2023-02-06T07:04:32.381Z,1.60
2023-02-06T07:09:34.930Z,2.10
2023-02-06T07:14:37.482Z,2.15
2023-02-06T07:19:40.074Z,1.55
2023-02-06T07:24:42.954Z,1.90
2023-02-06T07:29:45.760Z,3.00
2023-02-06T07:34:48.304Z,2.33
2023-02-06T07:39:50.867Z,1.48
2023-02-06T07:44:53.470Z,2.30
2023-02-06T07:49:56.066Z,1.30
2023-02-06T07:54:58.631Z,1.17
2023-02-06T08:00:01.259Z,1.52
2023-02-06T08:05:03.826Z,1.33
2023-02-06T08:10:06.875Z,1.45
2023-02-06T08:15:10.062Z,1.50
2023-02-06T08:20:13.107Z,1.40
2023-02-06T08:25:16.066Z,2.15
2023-02-06T08:30:18.770Z,2.42
2023-02-06T08:35:21.412Z,1.63
2023-02-06T08:40:24.144Z,1.90
2023-02-06T08:45:26.831Z,1.70
2023-02-06T08:50:29.473Z,1.58
2023-02-06T08:55:32.036Z,4.30
2023-02-06T09:00:34.930Z,2.63
2023-02-06T09:05:37.810Z,1.98
2023-02-06T09:10:40.524Z,1.50
2023-02-06T09:15:50.215Z,2.38
2023-02-06T09:21:02.278Z,3.47
2023-02-06T09:26:05.672Z,1.55
2023-02-06T09:31:10.029Z,1.67
2023-02-06T09:36:17.486Z,6.72
2023-02-06T09:41:43.544Z,1.63
2023-02-06T09:47:26.785Z,1.42
2023-02-06T09:52:44.067Z,1.80
2023-02-06T09:58:25.392Z,1.80
2023-02-06T10:03:52.321Z,1.73
2023-02-06T10:09:02.844Z,1.77
2023-02-06T10:14:19.242Z,1.42
2023-02-06T10:19:43.853Z,1.40
2023-02-06T10:25:34.656Z,1.10
2023-02-06T10:30:55.948Z,1.00
2023-02-06T10:36:14.969Z,1.02
2023-02-06T10:41:56.621Z,0.80
2023-02-06T10:47:00.393Z,0.98
2023-02-06T10:52:29.959Z,1.25
2023-02-06T10:57:33.891Z,1.38
2023-02-06T11:03:06.539Z,2.70
2023-02-06T11:08:34.071Z,1.42
2023-02-06T11:13:38.811Z,1.77
2023-02-06T11:24:16.509Z,1.38
2023-02-06T11:29:31.803Z,2.15
2023-02-06T11:34:37.085Z,1.38
2023-02-06T11:39:40.142Z,1.60
2023-02-06T11:44:45.412Z,2.63
2023-02-06T11:49:48.358Z,1.08
2023-02-06T11:54:56.542Z,1.48
2023-02-06T12:00:21.548Z,2.15
2023-02-06T12:05:41.895Z,2.30
2023-02-06T12:10:59.529Z,2.90
2023-02-06T12:16:06.562Z,0.75
2023-02-06T12:21:19.979Z,1.27
2023-02-06T12:26:27.296Z,1.77
2023-02-06T12:31:43.030Z,5.10
2023-02-06T12:37:00.130Z,3.63
2023-02-06T12:42:20.845Z,1.50
2023-02-06T12:47:42.251Z,1.52
2023-02-06T12:53:05.457Z,1.45
2023-02-06T12:58:51.281Z,1.10
2023-02-06T13:09:06.027Z,1.13
2023-02-06T13:14:25.161Z,1.25
2023-02-06T13:19:51.128Z,3.00
2023-02-06T13:24:57.274Z,1.85
2023-02-06T13:30:39.641Z,2.95
2023-02-06T13:36:16.955Z,2.38
2023-02-06T13:41:31.559Z,5.00
2023-02-06T13:46:58.280Z,3.35
2023-02-06T13:52:47.741Z,15.75
2023-02-06T13:58:37.246Z,10.18
2023-02-06T14:03:46.146Z,4.78
2023-02-06T14:08:54.603Z,7.03
2023-02-06T14:14:14.834Z,4.65
2023-02-06T14:20:07.246Z,2.22
2023-02-06T14:25:57.380Z,2.63
2023-02-06T14:31:14.567Z,4.57
2023-02-06T14:36:44.331Z,30.48
2023-02-06T14:41:47.085Z,23.95
2023-02-06T14:46:49.915Z,45.30
2023-02-06T14:51:53.579Z,31.42
2023-02-06T14:57:02.734Z,94.97
2023-02-06T15:02:14.216Z,67.55
2023-02-06T15:07:44.428Z,19.75
2023-02-06T15:12:54.866Z,6.10
2023-02-06T15:18:07.048Z,5.30
2023-02-06T15:23:29.989Z,6.90
2023-02-06T15:28:38.222Z,16.55
2023-02-06T15:33:41.728Z,12.38
2023-02-06T15:38:45.572Z,19.98
2023-02-06T15:43:48.870Z,61.63
2023-02-06T15:48:54.066Z,112.95
2023-02-06T15:54:16.571Z,37.05
2023-02-06T15:59:24.298Z,18.70
2023-02-06T16:04:34.193Z,20.35
2023-02-06T16:09:46.686Z,15.27
2023-02-06T16:14:57.844Z,6.05
2023-02-06T16:20:26.990Z,3.55
2023-02-06T16:25:34.328Z,2.20
2023-02-06T16:30:37.333Z,2.72
2023-02-06T16:35:40.148Z,2.92
2023-02-06T16:40:42.828Z,3.95
2023-02-06T16:45:46.695Z,17.60
2023-02-06T16:50:49.572Z,5.00
2023-02-06T16:55:52.668Z,3.53
2023-02-06T17:00:55.292Z,2.45
2023-02-06T17:05:58.091Z,5.15
2023-02-06T17:11:20.963Z,3.28
2023-02-06T17:16:26.428Z,5.10
2023-02-06T17:21:32.774Z,8.00
2023-02-06T17:26:35.594Z,6.43
2023-02-06T17:31:38.357Z,7.70
2023-02-06T17:36:41.259Z,7.65
2023-02-06T17:41:43.925Z,5.53
2023-02-06T17:46:49.105Z,4.40
2023-02-06T17:51:52.093Z,4.57
2023-02-06T17:56:54.870Z,4.57
2023-02-06T18:01:57.657Z,9.02
2023-02-06T18:07:00.541Z,6.90
2023-02-06T18:12:03.268Z,8.40
2023-02-06T18:17:06.031Z,11.65
2023-02-06T18:22:15.062Z,15.32
2023-02-06T18:27:19.612Z,22.77
2023-02-06T18:32:22.274Z,22.55
2023-02-06T18:37:25.316Z,19.60
2023-02-06T18:42:46.435Z,20.90
2023-02-06T18:47:51.529Z,20.75
2023-02-06T18:52:54.193Z,19.85
2023-02-06T18:57:56.939Z,20.63
2023-02-06T19:02:59.695Z,22.85
2023-02-06T19:08:02.580Z,23.15
2023-02-06T19:13:05.802Z,22.05
2023-02-06T19:18:09.091Z,24.38
2023-02-06T19:23:11.742Z,18.98
2023-02-06T19:28:14.529Z,15.55
2023-02-06T19:33:17.276Z,12.13
2023-02-06T19:38:19.884Z,11.80
2023-02-06T19:43:22.722Z,11.70
2023-02-06T19:48:25.570Z,12.98
2023-02-06T19:53:29.036Z,12.43
2023-02-06T19:58:59.681Z,11.25
2023-02-06T20:04:03.466Z,12.00
2023-02-06T20:09:06.762Z,14.23
2023-02-06T20:14:10.427Z,15.55
2023-02-06T20:19:18.691Z,16.02
2023-02-06T20:24:25.482Z,15.40
2023-02-06T20:29:35.771Z,17.35
2023-02-06T20:34:38.801Z,16.10
2023-02-06T20:39:41.383Z,16.10
2023-02-06T20:44:44.075Z,14.43
2023-02-06T20:49:46.789Z,13.30
2023-02-06T20:54:49.534Z,11.63
2023-02-06T20:59:52.218Z,13.27
2023-02-06T21:04:55.400Z,9.90
2023-02-06T21:09:58.026Z,10.80
2023-02-06T21:15:00.709Z,13.13
2023-02-06T21:20:04.357Z,10.40
2023-02-06T21:25:07.356Z,12.68
2023-02-06T21:30:12.289Z,10.35
2023-02-06T21:35:14.917Z,9.88
2023-02-06T21:40:17.674Z,10.60
2023-02-06T21:45:20.300Z,9.00
2023-02-06T21:50:22.925Z,7.88
2023-02-06T21:55:25.560Z,8.90
2023-02-06T22:00:29.155Z,9.00
2023-02-06T22:05:31.930Z,10.15
2023-02-06T22:10:37.593Z,10.10
2023-02-06T22:15:40.461Z,9.73
2023-02-06T22:20:43.423Z,8.27
2023-02-06T22:25:48.685Z,8.15
2023-02-06T22:30:51.474Z,8.07
2023-02-06T22:35:54.092Z,6.18
2023-02-06T22:41:05.179Z,4.95
2023-02-06T22:46:08.823Z,4.25
2023-02-06T22:51:11.756Z,3.55
2023-02-06T22:56:37.407Z,1.88
2023-02-06T23:01:45.338Z,2.50
2023-02-06T23:06:48.956Z,2.00
2023-02-06T23:11:52.740Z,2.30
2023-02-06T23:16:55.637Z,2.63
2023-02-06T23:21:58.273Z,2.80
2023-02-06T23:27:00.849Z,2.78
2023-02-06T23:32:03.420Z,4.03
2023-02-06T23:37:06.837Z,4.25
2023-02-06T23:42:09.369Z,5.30
2023-02-06T23:47:11.939Z,4.53
2023-02-06T23:52:14.887Z,4.40
2023-02-06T23:57:18.195Z,4.10
